sensor_id;sensor_type;location;lat;lon;timestamp;P1;P2;P0
74880;PMS5003;63427;49.654;6.596;2023-04-03T00:02:24;7;6;
74880;PMS5003;63427;49.654;6.596;2023-04-03T00:04:50;6;6;
74880;PMS5003;63427;49.654;6.596;2023-04-03T00:07:15;6;6;
74880;PMS5003;63427;49.654;6.596;2023-04-03T00:09:41;7;6;
74880;PMS5003;63427;49.654;6.596;2023-04-03T00:12:07;6;6;
74880;PMS5003;63427;49.654;6.596;2023-04-03T00:14:33;7;7;
74880;PMS5003;63427;49.654;6.596;2023-04-03T00:16:58;8;8;
74880;PMS5003;63427;49.654;6.596;2023-04-03T00:19:24;8;8;
74880;PMS5003;63427;49.654;6.596;2023-04-03T00:21:50;5;5;
74880;PMS5003;63427;49.654;6.596;2023-04-03T00:24:15;7;7;
74880;PMS5003;63427;49.654;6.596;2023-04-03T00:26:41;8;8;
74880;PMS5003;63427;49.654;6.596;2023-04-03T00:29:07;8;8;
74880;PMS5003;63427;49.654;6.596;2023-04-03T00:31:33;10;10;
74880;PMS5003;63427;49.654;6.596;2023-04-03T00:33:58;8;8;
74880;PMS5003;63427;49.654;6.596;2023-04-03T00:36:24;8;8;
74880;PMS5003;63427;49.654;6.596;2023-04-03T00:38:50;7;7;
74880;PMS5003;63427;49.654;6.596;2023-04-03T00:41:16;7;7;
74880;PMS5003;63427;49.654;6.596;2023-04-03T00:43:42;7;7;
74880;PMS5003;63427;49.654;6.596;2023-04-03T00:46:07;7;7;
74880;PMS5003;63427;49.654;6.596;2023-04-03T00:48:34;8;8;
74880;PMS5003;63427;49.654;6.596;2023-04-03T00:50:59;11;11;
74880;PMS5003;63427;49.654;6.596;2023-04-03T00:53:25;9;9;
74880;PMS5003;63427;49.654;6.596;2023-04-03T00:55:50;9;8;
74880;PMS5003;63427;49.654;6.596;2023-04-03T00:58:16;9;9;
74880;PMS5003;63427;49.654;6.596;2023-04-03T01:00:43;9;9;
74880;PMS5003;63427;49.654;6.596;2023-04-03T01:03:08;8;8;
74880;PMS5003;63427;49.654;6.596;2023-04-03T01:05:33;8;8;
74880;PMS5003;63427;49.654;6.596;2023-04-03T01:07:59;8;8;
74880;PMS5003;63427;49.654;6.596;2023-04-03T01:10:25;7;7;
74880;PMS5003;63427;49.654;6.596;2023-04-03T01:12:51;7;7;
74880;PMS5003;63427;49.654;6.596;2023-04-03T01:15:17;8;7;
74880;PMS5003;63427;49.654;6.596;2023-04-03T01:17:44;8;8;
74880;PMS5003;63427;49.654;6.596;2023-04-03T01:22:34;9;8;
74880;PMS5003;63427;49.654;6.596;2023-04-03T01:24:59;8;8;
74880;PMS5003;63427;49.654;6.596;2023-04-03T01:27:25;13;13;
74880;PMS5003;63427;49.654;6.596;2023-04-03T01:29:51;9;9;
74880;PMS5003;63427;49.654;6.596;2023-04-03T01:32:17;8;8;
74880;PMS5003;63427;49.654;6.596;2023-04-03T01:34:43;11;10;
74880;PMS5003;63427;49.654;6.596;2023-04-03T01:37:08;8;7;
74880;PMS5003;63427;49.654;6.596;2023-04-03T01:39:34;11;10;
74880;PMS5003;63427;49.654;6.596;2023-04-03T01:42:00;9;8;
74880;PMS5003;63427;49.654;6.596;2023-04-03T01:44:26;8;8;
74880;PMS5003;63427;49.654;6.596;2023-04-03T01:46:51;6;6;
74880;PMS5003;63427;49.654;6.596;2023-04-03T01:49:17;5;5;
74880;PMS5003;63427;49.654;6.596;2023-04-03T01:51:43;7;6;
74880;PMS5003;63427;49.654;6.596;2023-04-03T01:54:09;5;5;
74880;PMS5003;63427;49.654;6.596;2023-04-03T01:56:35;6;6;
74880;PMS5003;63427;49.654;6.596;2023-04-03T01:59:00;7;7;
74880;PMS5003;63427;49.654;6.596;2023-04-03T02:01:26;6;6;
74880;PMS5003;63427;49.654;6.596;2023-04-03T02:03:52;5;5;
74880;PMS5003;63427;49.654;6.596;2023-04-03T02:06:18;6;6;
74880;PMS5003;63427;49.654;6.596;2023-04-03T02:08:44;7;7;
74880;PMS5003;63427;49.654;6.596;2023-04-03T02:11:09;5;5;
74880;PMS5003;63427;49.654;6.596;2023-04-03T02:13:35;6;6;
74880;PMS5003;63427;49.654;6.596;2023-04-03T02:16:07;7;6;
74880;PMS5003;63427;49.654;6.596;2023-04-03T02:18:26;7;7;
74880;PMS5003;63427;49.654;6.596;2023-04-03T02:20:52;7;7;
74880;PMS5003;63427;49.654;6.596;2023-04-03T02:23:18;7;7;
74880;PMS5003;63427;49.654;6.596;2023-04-03T02:25:44;7;7;
74880;PMS5003;63427;49.654;6.596;2023-04-03T02:28:09;6;6;
74880;PMS5003;63427;49.654;6.596;2023-04-03T02:30:34;7;7;
74880;PMS5003;63427;49.654;6.596;2023-04-03T02:33:00;6;6;
74880;PMS5003;63427;49.654;6.596;2023-04-03T02:35:26;6;6;
74880;PMS5003;63427;49.654;6.596;2023-04-03T02:37:52;7;7;
74880;PMS5003;63427;49.654;6.596;2023-04-03T02:40:18;6;6;
74880;PMS5003;63427;49.654;6.596;2023-04-03T02:42:43;7;7;
74880;PMS5003;63427;49.654;6.596;2023-04-03T02:45:10;9;9;
74880;PMS5003;63427;49.654;6.596;2023-04-03T02:47:35;10;9;
74880;PMS5003;63427;49.654;6.596;2023-04-03T02:50:01;9;9;
74880;PMS5003;63427;49.654;6.596;2023-04-03T02:52:27;8;6;
74880;PMS5003;63427;49.654;6.596;2023-04-03T02:54:53;9;9;
74880;PMS5003;63427;49.654;6.596;2023-04-03T02:57:18;8;6;
74880;PMS5003;63427;49.654;6.596;2023-04-03T02:59:43;10;9;
74880;PMS5003;63427;49.654;6.596;2023-04-03T03:02:09;6;6;
74880;PMS5003;63427;49.654;6.596;2023-04-03T03:04:35;9;9;
74880;PMS5003;63427;49.654;6.596;2023-04-03T03:07:00;9;9;
74880;PMS5003;63427;49.654;6.596;2023-04-03T03:09:26;10;10;
74880;PMS5003;63427;49.654;6.596;2023-04-03T03:11:52;10;10;
74880;PMS5003;63427;49.654;6.596;2023-04-03T03:14:17;9;9;
74880;PMS5003;63427;49.654;6.596;2023-04-03T03:16:43;9;8;
74880;PMS5003;63427;49.654;6.596;2023-04-03T03:19:08;6;6;
74880;PMS5003;63427;49.654;6.596;2023-04-03T03:21:33;10;9;
74880;PMS5003;63427;49.654;6.596;2023-04-03T03:23:59;10;9;
74880;PMS5003;63427;49.654;6.596;2023-04-03T03:26:24;5;5;
74880;PMS5003;63427;49.654;6.596;2023-04-03T03:28:49;13;11;
74880;PMS5003;63427;49.654;6.596;2023-04-03T03:31:14;10;10;
74880;PMS5003;63427;49.654;6.596;2023-04-03T03:33:39;9;8;
74880;PMS5003;63427;49.654;6.596;2023-04-03T03:36:05;10;9;
74880;PMS5003;63427;49.654;6.596;2023-04-03T03:38:29;11;10;
74880;PMS5003;63427;49.654;6.596;2023-04-03T03:40:55;11;11;
74880;PMS5003;63427;49.654;6.596;2023-04-03T03:43:20;11;10;
74880;PMS5003;63427;49.654;6.596;2023-04-03T03:45:45;11;11;
74880;PMS5003;63427;49.654;6.596;2023-04-03T03:48:10;9;9;
74880;PMS5003;63427;49.654;6.596;2023-04-03T03:50:35;9;9;
74880;PMS5003;63427;49.654;6.596;2023-04-03T03:53:00;8;8;
74880;PMS5003;63427;49.654;6.596;2023-04-03T03:55:25;8;8;
74880;PMS5003;63427;49.654;6.596;2023-04-03T03:57:50;9;8;
74880;PMS5003;63427;49.654;6.596;2023-04-03T04:00:16;9;9;
74880;PMS5003;63427;49.654;6.596;2023-04-03T04:02:40;10;9;
74880;PMS5003;63427;49.654;6.596;2023-04-03T04:05:06;9;9;
74880;PMS5003;63427;49.654;6.596;2023-04-03T04:07:31;35;34;
74880;PMS5003;63427;49.654;6.596;2023-04-03T04:09:56;133;117;
74880;PMS5003;63427;49.654;6.596;2023-04-03T04:12:22;105;94;
74880;PMS5003;63427;49.654;6.596;2023-04-03T04:14:48;96;83;
74880;PMS5003;63427;49.654;6.596;2023-04-03T04:17:14;62;55;
74880;PMS5003;63427;49.654;6.596;2023-04-03T04:19:39;33;29;
74880;PMS5003;63427;49.654;6.596;2023-04-03T04:22:05;14;14;
74880;PMS5003;63427;49.654;6.596;2023-04-03T04:24:30;15;14;
74880;PMS5003;63427;49.654;6.596;2023-04-03T04:26:55;14;13;
74880;PMS5003;63427;49.654;6.596;2023-04-03T04:29:20;12;10;
74880;PMS5003;63427;49.654;6.596;2023-04-03T04:31:46;13;10;
74880;PMS5003;63427;49.654;6.596;2023-04-03T04:34:11;10;9;
74880;PMS5003;63427;49.654;6.596;2023-04-03T04:36:36;10;10;
74880;PMS5003;63427;49.654;6.596;2023-04-03T04:39:01;12;12;
74880;PMS5003;63427;49.654;6.596;2023-04-03T04:41:26;13;12;
74880;PMS5003;63427;49.654;6.596;2023-04-03T04:43:51;13;12;
74880;PMS5003;63427;49.654;6.596;2023-04-03T04:46:16;14;13;
74880;PMS5003;63427;49.654;6.596;2023-04-03T04:48:42;13;13;
74880;PMS5003;63427;49.654;6.596;2023-04-03T04:51:07;13;12;
74880;PMS5003;63427;49.654;6.596;2023-04-03T04:53:32;14;13;
74880;PMS5003;63427;49.654;6.596;2023-04-03T04:55:57;12;12;
74880;PMS5003;63427;49.654;6.596;2023-04-03T04:58:22;15;14;
74880;PMS5003;63427;49.654;6.596;2023-04-03T05:00:48;12;12;
74880;PMS5003;63427;49.654;6.596;2023-04-03T05:03:14;9;9;
74880;PMS5003;63427;49.654;6.596;2023-04-03T05:05:39;15;14;
74880;PMS5003;63427;49.654;6.596;2023-04-03T05:08:05;14;13;
74880;PMS5003;63427;49.654;6.596;2023-04-03T05:10:30;13;12;
74880;PMS5003;63427;49.654;6.596;2023-04-03T05:12:55;12;12;
74880;PMS5003;63427;49.654;6.596;2023-04-03T05:15:20;13;10;
74880;PMS5003;63427;49.654;6.596;2023-04-03T05:17:46;10;10;
74880;PMS5003;63427;49.654;6.596;2023-04-03T05:20:11;10;10;
74880;PMS5003;63427;49.654;6.596;2023-04-03T05:22:36;13;12;
74880;PMS5003;63427;49.654;6.596;2023-04-03T05:25:01;12;12;
74880;PMS5003;63427;49.654;6.596;2023-04-03T05:27:26;11;11;
74880;PMS5003;63427;49.654;6.596;2023-04-03T05:29:52;11;11;
74880;PMS5003;63427;49.654;6.596;2023-04-03T05:32:16;11;11;
74880;PMS5003;63427;49.654;6.596;2023-04-03T05:34:41;12;12;
74880;PMS5003;63427;49.654;6.596;2023-04-03T05:37:07;13;12;
74880;PMS5003;63427;49.654;6.596;2023-04-03T05:39:32;13;12;
74880;PMS5003;63427;49.654;6.596;2023-04-03T05:41:57;10;10;
74880;PMS5003;63427;49.654;6.596;2023-04-03T05:44:22;11;11;
74880;PMS5003;63427;49.654;6.596;2023-04-03T05:46:47;13;13;
74880;PMS5003;63427;49.654;6.596;2023-04-03T05:49:12;15;14;
74880;PMS5003;63427;49.654;6.596;2023-04-03T05:51:38;14;13;
74880;PMS5003;63427;49.654;6.596;2023-04-03T05:54:06;13;12;
74880;PMS5003;63427;49.654;6.596;2023-04-03T05:56:28;9;9;
74880;PMS5003;63427;49.654;6.596;2023-04-03T05:58:53;12;12;
74880;PMS5003;63427;49.654;6.596;2023-04-03T06:01:18;13;12;
74880;PMS5003;63427;49.654;6.596;2023-04-03T06:03:43;13;12;
74880;PMS5003;63427;49.654;6.596;2023-04-03T06:06:12;11;11;
74880;PMS5003;63427;49.654;6.596;2023-04-03T06:08:34;11;11;
74880;PMS5003;63427;49.654;6.596;2023-04-03T06:10:59;8;8;
74880;PMS5003;63427;49.654;6.596;2023-04-03T06:13:24;10;10;
74880;PMS5003;63427;49.654;6.596;2023-04-03T06:15:49;13;13;
74880;PMS5003;63427;49.654;6.596;2023-04-03T06:18:15;10;10;
74880;PMS5003;63427;49.654;6.596;2023-04-03T06:20:39;9;9;
74880;PMS5003;63427;49.654;6.596;2023-04-03T06:23:05;12;12;
74880;PMS5003;63427;49.654;6.596;2023-04-03T06:25:30;10;9;
74880;PMS5003;63427;49.654;6.596;2023-04-03T06:27:55;12;12;
74880;PMS5003;63427;49.654;6.596;2023-04-03T06:30:21;10;9;
74880;PMS5003;63427;49.654;6.596;2023-04-03T06:32:46;9;9;
74880;PMS5003;63427;49.654;6.596;2023-04-03T06:35:11;12;8;
74880;PMS5003;63427;49.654;6.596;2023-04-03T06:37:37;10;10;
74880;PMS5003;63427;49.654;6.596;2023-04-03T06:40:02;9;9;
74880;PMS5003;63427;49.654;6.596;2023-04-03T06:42:27;10;10;
74880;PMS5003;63427;49.654;6.596;2023-04-03T06:44:52;10;9;
74880;PMS5003;63427;49.654;6.596;2023-04-03T06:47:17;10;10;
74880;PMS5003;63427;49.654;6.596;2023-04-03T06:49:42;11;11;
74880;PMS5003;63427;49.654;6.596;2023-04-03T06:52:07;12;12;
74880;PMS5003;63427;49.654;6.596;2023-04-03T06:54:32;12;12;
74880;PMS5003;63427;49.654;6.596;2023-04-03T06:56:57;10;10;
74880;PMS5003;63427;49.654;6.596;2023-04-03T06:59:23;11;11;
74880;PMS5003;63427;49.654;6.596;2023-04-03T07:01:48;11;10;
74880;PMS5003;63427;49.654;6.596;2023-04-03T07:04:13;9;9;
74880;PMS5003;63427;49.654;6.596;2023-04-03T07:06:39;10;9;
74880;PMS5003;63427;49.654;6.596;2023-04-03T07:09:03;9;9;
74880;PMS5003;63427;49.654;6.596;2023-04-03T07:11:28;11;11;
74880;PMS5003;63427;49.654;6.596;2023-04-03T07:13:54;9;9;
74880;PMS5003;63427;49.654;6.596;2023-04-03T07:16:20;6;6;
74880;PMS5003;63427;49.654;6.596;2023-04-03T07:18:46;6;6;
74880;PMS5003;63427;49.654;6.596;2023-04-03T07:21:12;10;9;
74880;PMS5003;63427;49.654;6.596;2023-04-03T07:23:38;10;9;
74880;PMS5003;63427;49.654;6.596;2023-04-03T07:26:03;6;6;
74880;PMS5003;63427;49.654;6.596;2023-04-03T07:28:29;6;5;
74880;PMS5003;63427;49.654;6.596;2023-04-03T07:31:01;6;6;
74880;PMS5003;63427;49.654;6.596;2023-04-03T07:33:22;6;6;
74880;PMS5003;63427;49.654;6.596;2023-04-03T07:35:47;6;5;
74880;PMS5003;63427;49.654;6.596;2023-04-03T07:38:13;6;6;
74880;PMS5003;63427;49.654;6.596;2023-04-03T07:40:38;4;4;
74880;PMS5003;63427;49.654;6.596;2023-04-03T07:43:04;5;5;
74880;PMS5003;63427;49.654;6.596;2023-04-03T07:45:30;6;6;
74880;PMS5003;63427;49.654;6.596;2023-04-03T07:47:56;5;5;
74880;PMS5003;63427;49.654;6.596;2023-04-03T07:50:21;6;6;
74880;PMS5003;63427;49.654;6.596;2023-04-03T07:52:47;7;7;
74880;PMS5003;63427;49.654;6.596;2023-04-03T07:55:13;6;5;
74880;PMS5003;63427;49.654;6.596;2023-04-03T07:57:39;4;4;
74880;PMS5003;63427;49.654;6.596;2023-04-03T08:00:05;8;8;
74880;PMS5003;63427;49.654;6.596;2023-04-03T08:02:30;8;7;
74880;PMS5003;63427;49.654;6.596;2023-04-03T08:04:56;6;6;
74880;PMS5003;63427;49.654;6.596;2023-04-03T08:07:21;7;7;
74880;PMS5003;63427;49.654;6.596;2023-04-03T08:09:47;5;5;
74880;PMS5003;63427;49.654;6.596;2023-04-03T08:12:12;6;6;
74880;PMS5003;63427;49.654;6.596;2023-04-03T08:14:38;7;6;
74880;PMS5003;63427;49.654;6.596;2023-04-03T08:17:04;6;6;
74880;PMS5003;63427;49.654;6.596;2023-04-03T08:19:30;6;5;
74880;PMS5003;63427;49.654;6.596;2023-04-03T08:21:55;7;7;
74880;PMS5003;63427;49.654;6.596;2023-04-03T08:24:21;5;5;
74880;PMS5003;63427;49.654;6.596;2023-04-03T08:26:46;6;5;
74880;PMS5003;63427;49.654;6.596;2023-04-03T08:29:12;5;5;
74880;PMS5003;63427;49.654;6.596;2023-04-03T08:31:38;6;6;
74880;PMS5003;63427;49.654;6.596;2023-04-03T08:34:03;5;5;
74880;PMS5003;63427;49.654;6.596;2023-04-03T08:36:29;8;7;
74880;PMS5003;63427;49.654;6.596;2023-04-03T08:38:55;8;8;
74880;PMS5003;63427;49.654;6.596;2023-04-03T08:41:21;6;6;
74880;PMS5003;63427;49.654;6.596;2023-04-03T08:46:11;6;6;
74880;PMS5003;63427;49.654;6.596;2023-04-03T08:48:38;8;7;
74880;PMS5003;63427;49.654;6.596;2023-04-03T08:51:03;6;5;
74880;PMS5003;63427;49.654;6.596;2023-04-03T08:53:28;4;4;
74880;PMS5003;63427;49.654;6.596;2023-04-03T08:55:54;6;6;
74880;PMS5003;63427;49.654;6.596;2023-04-03T08:58:19;6;5;
74880;PMS5003;63427;49.654;6.596;2023-04-03T09:00:45;6;5;
74880;PMS5003;63427;49.654;6.596;2023-04-03T09:03:11;7;7;
74880;PMS5003;63427;49.654;6.596;2023-04-03T09:05:39;5;5;
74880;PMS5003;63427;49.654;6.596;2023-04-03T09:08:03;6;6;
74880;PMS5003;63427;49.654;6.596;2023-04-03T09:10:27;7;7;
74880;PMS5003;63427;49.654;6.596;2023-04-03T09:12:55;7;6;
74880;PMS5003;63427;49.654;6.596;2023-04-03T09:15:19;7;7;
74880;PMS5003;63427;49.654;6.596;2023-04-03T09:17:46;6;6;
74880;PMS5003;63427;49.654;6.596;2023-04-03T09:20:14;6;6;
74880;PMS5003;63427;49.654;6.596;2023-04-03T09:22:34;7;7;
74880;PMS5003;63427;49.654;6.596;2023-04-03T09:25:00;4;4;
74880;PMS5003;63427;49.654;6.596;2023-04-03T09:27:25;5;5;
74880;PMS5003;63427;49.654;6.596;2023-04-03T09:29:52;6;5;
74880;PMS5003;63427;49.654;6.596;2023-04-03T09:32:19;5;5;
74880;PMS5003;63427;49.654;6.596;2023-04-03T09:34:41;6;6;
74880;PMS5003;63427;49.654;6.596;2023-04-03T09:37:07;5;5;
74880;PMS5003;63427;49.654;6.596;2023-04-03T09:39:32;5;5;
74880;PMS5003;63427;49.654;6.596;2023-04-03T09:41:58;7;7;
74880;PMS5003;63427;49.654;6.596;2023-04-03T09:44:23;6;6;
74880;PMS5003;63427;49.654;6.596;2023-04-03T09:46:48;6;5;
74880;PMS5003;63427;49.654;6.596;2023-04-03T09:49:14;5;5;
74880;PMS5003;63427;49.654;6.596;2023-04-03T09:51:39;7;7;
74880;PMS5003;63427;49.654;6.596;2023-04-03T09:56:30;4;4;
74880;PMS5003;63427;49.654;6.596;2023-04-03T10:01:22;6;6;
74880;PMS5003;63427;49.654;6.596;2023-04-03T10:03:45;6;5;
74880;PMS5003;63427;49.654;6.596;2023-04-03T10:08:36;6;6;
74880;PMS5003;63427;49.654;6.596;2023-04-03T10:11:07;6;6;
74880;PMS5003;63427;49.654;6.596;2023-04-03T10:13:27;8;7;
74880;PMS5003;63427;49.654;6.596;2023-04-03T10:15:55;7;7;
74880;PMS5003;63427;49.654;6.596;2023-04-03T10:18:22;6;6;
74880;PMS5003;63427;49.654;6.596;2023-04-03T10:20:43;8;6;
74880;PMS5003;63427;49.654;6.596;2023-04-03T10:23:15;6;6;
74880;PMS5003;63427;49.654;6.596;2023-04-03T10:25:35;5;5;
74880;PMS5003;63427;49.654;6.596;2023-04-03T10:27:59;7;6;
74880;PMS5003;63427;49.654;6.596;2023-04-03T10:30:31;5;5;
74880;PMS5003;63427;49.654;6.596;2023-04-03T10:32:52;6;6;
74880;PMS5003;63427;49.654;6.596;2023-04-03T10:35:16;5;5;
74880;PMS5003;63427;49.654;6.596;2023-04-03T10:37:43;4;4;
74880;PMS5003;63427;49.654;6.596;2023-04-03T10:40:20;6;6;
74880;PMS5003;63427;49.654;6.596;2023-04-03T10:42:32;4;4;
74880;PMS5003;63427;49.654;6.596;2023-04-03T10:44:59;3;3;
74880;PMS5003;63427;49.654;6.596;2023-04-03T10:47:20;3;3;
74880;PMS5003;63427;49.654;6.596;2023-04-03T10:52:12;5;5;
74880;PMS5003;63427;49.654;6.596;2023-04-03T10:54:36;5;5;
74880;PMS5003;63427;49.654;6.596;2023-04-03T10:57:01;4;3;
74880;PMS5003;63427;49.654;6.596;2023-04-03T10:59:26;3;3;
74880;PMS5003;63427;49.654;6.596;2023-04-03T11:01:52;5;4;
74880;PMS5003;63427;49.654;6.596;2023-04-03T11:04:16;5;5;
74880;PMS5003;63427;49.654;6.596;2023-04-03T11:06:43;4;4;
74880;PMS5003;63427;49.654;6.596;2023-04-03T11:09:10;3;3;
74880;PMS5003;63427;49.654;6.596;2023-04-03T11:11:33;3;3;
74880;PMS5003;63427;49.654;6.596;2023-04-03T11:13:58;5;4;
74880;PMS5003;63427;49.654;6.596;2023-04-03T11:16:23;8;8;
74880;PMS5003;63427;49.654;6.596;2023-04-03T11:18:49;16;16;
74880;PMS5003;63427;49.654;6.596;2023-04-03T11:21:16;4;4;
74880;PMS5003;63427;49.654;6.596;2023-04-03T11:23:38;3;3;
74880;PMS5003;63427;49.654;6.596;2023-04-03T11:26:07;2;2;
74880;PMS5003;63427;49.654;6.596;2023-04-03T11:28:28;4;4;
74880;PMS5003;63427;49.654;6.596;2023-04-03T11:30:54;6;6;
74880;PMS5003;63427;49.654;6.596;2023-04-03T11:33:24;4;4;
74880;PMS5003;63427;49.654;6.596;2023-04-03T11:35:44;4;4;
74880;PMS5003;63427;49.654;6.596;2023-04-03T11:38:10;4;4;
74880;PMS5003;63427;49.654;6.596;2023-04-03T11:40:34;4;4;
74880;PMS5003;63427;49.654;6.596;2023-04-03T11:43:03;3;3;
74880;PMS5003;63427;49.654;6.596;2023-04-03T11:45:27;3;3;
74880;PMS5003;63427;49.654;6.596;2023-04-03T11:47:49;4;4;
74880;PMS5003;63427;49.654;6.596;2023-04-03T11:55:35;3;3;
74880;PMS5003;63427;49.654;6.596;2023-04-03T11:57:43;3;3;
74880;PMS5003;63427;49.654;6.596;2023-04-03T11:59:54;3;3;
74880;PMS5003;63427;49.654;6.596;2023-04-03T12:04:45;4;4;
74880;PMS5003;63427;49.654;6.596;2023-04-03T12:07:12;2;2;
74880;PMS5003;63427;49.654;6.596;2023-04-03T12:14:28;3;3;
74880;PMS5003;63427;49.654;6.596;2023-04-03T12:16:54;4;4;
74880;PMS5003;63427;49.654;6.596;2023-04-03T12:19:29;4;4;
74880;PMS5003;63427;49.654;6.596;2023-04-03T12:26:38;1;1;
74880;PMS5003;63427;49.654;6.596;2023-04-03T12:29:02;4;4;
74880;PMS5003;63427;49.654;6.596;2023-04-03T12:31:32;3;3;
74880;PMS5003;63427;49.654;6.596;2023-04-03T12:34:01;3;3;
74880;PMS5003;63427;49.654;6.596;2023-04-03T12:36:22;2;2;
74880;PMS5003;63427;49.654;6.596;2023-04-03T12:38:55;5;4;
74880;PMS5003;63427;49.654;6.596;2023-04-03T12:41:16;4;4;
74880;PMS5003;63427;49.654;6.596;2023-04-03T12:43:41;2;2;
74880;PMS5003;63427;49.654;6.596;2023-04-03T12:46:03;3;3;
74880;PMS5003;63427;49.654;6.596;2023-04-03T12:48:30;3;3;
74880;PMS5003;63427;49.654;6.596;2023-04-03T12:50:55;4;3;
74880;PMS5003;63427;49.654;6.596;2023-04-03T12:53:21;4;3;
74880;PMS5003;63427;49.654;6.596;2023-04-03T12:55:46;1;1;
74880;PMS5003;63427;49.654;6.596;2023-04-03T12:58:14;3;3;
74880;PMS5003;63427;49.654;6.596;2023-04-03T13:00:38;3;3;
74880;PMS5003;63427;49.654;6.596;2023-04-03T13:03:04;3;3;
74880;PMS5003;63427;49.654;6.596;2023-04-03T13:05:30;2;2;
74880;PMS5003;63427;49.654;6.596;2023-04-03T13:07:57;3;3;
74880;PMS5003;63427;49.654;6.596;2023-04-03T13:10:21;3;3;
74880;PMS5003;63427;49.654;6.596;2023-04-03T13:12:48;3;3;
74880;PMS5003;63427;49.654;6.596;2023-04-03T13:15:13;3;3;
74880;PMS5003;63427;49.654;6.596;2023-04-03T13:17:38;6;6;
74880;PMS5003;63427;49.654;6.596;2023-04-03T13:20:10;3;3;
74880;PMS5003;63427;49.654;6.596;2023-04-03T13:22:31;6;6;
74880;PMS5003;63427;49.654;6.596;2023-04-03T13:24:56;3;3;
74880;PMS5003;63427;49.654;6.596;2023-04-03T13:27:22;2;2;
74880;PMS5003;63427;49.654;6.596;2023-04-03T13:29:49;4;4;
74880;PMS5003;63427;49.654;6.596;2023-04-03T13:32:14;5;4;
74880;PMS5003;63427;49.654;6.596;2023-04-03T13:34:41;7;7;
74880;PMS5003;63427;49.654;6.596;2023-04-03T13:37:05;2;2;
74880;PMS5003;63427;49.654;6.596;2023-04-03T13:39:31;2;1;
74880;PMS5003;63427;49.654;6.596;2023-04-03T13:41:56;2;2;
74880;PMS5003;63427;49.654;6.596;2023-04-03T13:44:26;8;8;
74880;PMS5003;63427;49.654;6.596;2023-04-03T13:46:46;4;4;
74880;PMS5003;63427;49.654;6.596;2023-04-03T13:49:17;3;3;
74880;PMS5003;63427;49.654;6.596;2023-04-03T13:51:37;3;3;
74880;PMS5003;63427;49.654;6.596;2023-04-03T13:56:30;4;3;
74880;PMS5003;63427;49.654;6.596;2023-04-03T13:58:57;5;4;
74880;PMS5003;63427;49.654;6.596;2023-04-03T14:01:21;4;3;
74880;PMS5003;63427;49.654;6.596;2023-04-03T14:03:51;3;3;
74880;PMS5003;63427;49.654;6.596;2023-04-03T14:06:13;4;4;
74880;PMS5003;63427;49.654;6.596;2023-04-03T14:08:38;4;4;
74880;PMS5003;63427;49.654;6.596;2023-04-03T14:11:04;6;6;
74880;PMS5003;63427;49.654;6.596;2023-04-03T14:13:30;5;5;
74880;PMS5003;63427;49.654;6.596;2023-04-03T14:15:56;3;3;
74880;PMS5003;63427;49.654;6.596;2023-04-03T14:18:22;3;3;
74880;PMS5003;63427;49.654;6.596;2023-04-03T14:20:48;2;2;
74880;PMS5003;63427;49.654;6.596;2023-04-03T14:23:14;4;2;
74880;PMS5003;63427;49.654;6.596;2023-04-03T14:25:39;3;3;
74880;PMS5003;63427;49.654;6.596;2023-04-03T14:28:07;7;7;
74880;PMS5003;63427;49.654;6.596;2023-04-03T14:30:30;4;4;
74880;PMS5003;63427;49.654;6.596;2023-04-03T14:32:55;5;5;
74880;PMS5003;63427;49.654;6.596;2023-04-03T14:35:21;4;4;
74880;PMS5003;63427;49.654;6.596;2023-04-03T14:37:47;6;6;
74880;PMS5003;63427;49.654;6.596;2023-04-03T14:40:13;4;4;
74880;PMS5003;63427;49.654;6.596;2023-04-03T14:42:37;3;3;
74880;PMS5003;63427;49.654;6.596;2023-04-03T14:45:03;4;4;
74880;PMS5003;63427;49.654;6.596;2023-04-03T14:47:28;4;3;
74880;PMS5003;63427;49.654;6.596;2023-04-03T14:49:52;3;3;
74880;PMS5003;63427;49.654;6.596;2023-04-03T14:52:18;4;4;
74880;PMS5003;63427;49.654;6.596;2023-04-03T14:54:42;4;4;
74880;PMS5003;63427;49.654;6.596;2023-04-03T14:57:08;6;6;
74880;PMS5003;63427;49.654;6.596;2023-04-03T14:59:32;5;5;
74880;PMS5003;63427;49.654;6.596;2023-04-03T15:01:57;6;5;
74880;PMS5003;63427;49.654;6.596;2023-04-03T15:04:22;4;4;
74880;PMS5003;63427;49.654;6.596;2023-04-03T15:06:47;5;5;
74880;PMS5003;63427;49.654;6.596;2023-04-03T15:09:15;6;6;
74880;PMS5003;63427;49.654;6.596;2023-04-03T15:11:38;5;5;
74880;PMS5003;63427;49.654;6.596;2023-04-03T15:14:03;6;6;
74880;PMS5003;63427;49.654;6.596;2023-04-03T15:16:28;4;4;
74880;PMS5003;63427;49.654;6.596;2023-04-03T15:18:53;5;5;
74880;PMS5003;63427;49.654;6.596;2023-04-03T15:21:18;5;5;
74880;PMS5003;63427;49.654;6.596;2023-04-03T15:23:43;5;4;
74880;PMS5003;63427;49.654;6.596;2023-04-03T15:26:08;4;4;
74880;PMS5003;63427;49.654;6.596;2023-04-03T15:28:34;4;4;
74880;PMS5003;63427;49.654;6.596;2023-04-03T15:30:58;4;3;
74880;PMS5003;63427;49.654;6.596;2023-04-03T15:33:24;3;3;
74880;PMS5003;63427;49.654;6.596;2023-04-03T15:35:48;4;4;
74880;PMS5003;63427;49.654;6.596;2023-04-03T15:38:13;5;5;
74880;PMS5003;63427;49.654;6.596;2023-04-03T15:40:39;5;5;
74880;PMS5003;63427;49.654;6.596;2023-04-03T15:43:04;4;4;
74880;PMS5003;63427;49.654;6.596;2023-04-03T15:45:29;6;5;
74880;PMS5003;63427;49.654;6.596;2023-04-03T15:47:54;5;5;
74880;PMS5003;63427;49.654;6.596;2023-04-03T15:50:19;3;3;
74880;PMS5003;63427;49.654;6.596;2023-04-03T15:52:44;4;4;
74880;PMS5003;63427;49.654;6.596;2023-04-03T15:55:10;4;3;
74880;PMS5003;63427;49.654;6.596;2023-04-03T15:57:39;4;3;
74880;PMS5003;63427;49.654;6.596;2023-04-03T16:00:00;4;4;
74880;PMS5003;63427;49.654;6.596;2023-04-03T16:02:25;4;4;
74880;PMS5003;63427;49.654;6.596;2023-04-03T16:04:50;6;6;
74880;PMS5003;63427;49.654;6.596;2023-04-03T16:07:15;5;5;
74880;PMS5003;63427;49.654;6.596;2023-04-03T16:09:50;3;3;
74880;PMS5003;63427;49.654;6.596;2023-04-03T16:12:06;5;4;
74880;PMS5003;63427;49.654;6.596;2023-04-03T16:14:31;8;8;
74880;PMS5003;63427;49.654;6.596;2023-04-03T16:16:56;20;19;
74880;PMS5003;63427;49.654;6.596;2023-04-03T16:19:22;10;10;
74880;PMS5003;63427;49.654;6.596;2023-04-03T16:21:47;32;32;
74880;PMS5003;63427;49.654;6.596;2023-04-03T16:24:12;16;16;
74880;PMS5003;63427;49.654;6.596;2023-04-03T16:26:40;11;11;
74880;PMS5003;63427;49.654;6.596;2023-04-03T16:29:03;6;6;
74880;PMS5003;63427;49.654;6.596;2023-04-03T16:31:28;6;6;
74880;PMS5003;63427;49.654;6.596;2023-04-03T16:33:54;6;5;
74880;PMS5003;63427;49.654;6.596;2023-04-03T16:36:19;7;7;
74880;PMS5003;63427;49.654;6.596;2023-04-03T16:38:44;7;7;
74880;PMS5003;63427;49.654;6.596;2023-04-03T16:41:10;6;6;
74880;PMS5003;63427;49.654;6.596;2023-04-03T16:43:35;7;7;
74880;PMS5003;63427;49.654;6.596;2023-04-03T16:46:00;6;6;
74880;PMS5003;63427;49.654;6.596;2023-04-03T16:48:26;7;7;
74880;PMS5003;63427;49.654;6.596;2023-04-03T16:50:51;6;6;
74880;PMS5003;63427;49.654;6.596;2023-04-03T16:53:16;9;8;
74880;PMS5003;63427;49.654;6.596;2023-04-03T16:55:42;7;7;
74880;PMS5003;63427;49.654;6.596;2023-04-03T16:58:07;5;4;
74880;PMS5003;63427;49.654;6.596;2023-04-03T17:00:32;6;6;
74880;PMS5003;63427;49.654;6.596;2023-04-03T17:02:58;8;8;
74880;PMS5003;63427;49.654;6.596;2023-04-03T17:05:23;9;8;